LEMD Airport Information

Runway Information
Runway 14L Length 11483 ft width 197 ft
Elevation 1942 ft Threshold 0 ft Heading 144
Runway 32R Length 11483 ft Width 197 ft
Elevation 1876 ft Threshold 1640 ft Heading 324
Runway 14R Length 13084 ft width 197 ft
Elevation 1995 ft Threshold 0 ft Heading 144
Runway 32L Length 13084 ft Width 197 ft
Elevation 1909 ft Threshold 3445 ft Heading 324
Runway 18L Length 11483 ft width 197 ft
Elevation 1919 ft Threshold 1640 ft Heading 181
Runway 36R Length 11483 ft Width 197 ft
Elevation 1942 ft Threshold 0 ft Heading 1
Runway 18R Length 13711 ft width 197 ft
Elevation 1998 ft Threshold 3232 ft Heading 181
Runway 36L Length 13711 ft Width 197 ft
Elevation 1985 ft Threshold 0 ft Heading 2
Airport Frequencies
Type APP Name MADRID APP Frequency 127.5 MHZ
Type ATIS Name ATIS Frequency 118.25 MHZ
Type ATIS DEP Name ATIS Depar Frequency 130.85 MHZ
Type CLD Name Delivery E Frequency 130.075 MHZ
Type CLD Name Delivery W Frequency 130.35 MHZ
Type EMR Name FIRE Frequency 122.975 MHZ
Type GND Name GND Frequency 121.85 MHZ
Type TWR Name TWR 36L Frequency 118.07 MHZ
Type TWR Name TWR 14R Frequency 118.15 MHZ
Type TWR Name TWR 36R Frequency 118.67 MHZ
Type TWR Name TWR 14L Frequency 118.975 MHZ
Airport Navaids
Type NDB Name Alcobendas Frequency 417 KHZ
Type VOR-DME Name Barajas Frequency 116450 KHZ
Type VOR-DME Name Perales Frequency 116950 KHZ
Type VOR-DME Name S.S.rRyes Frequency 117850 KHZ
Airport Weather Information & NOTAM
ADDS - METARS form results

(0804 UTC 22 May 2018)
 
METAR text: LEMD 220800Z 15003KT 9999 FEW040 16/13 Q1015 NOSIG
Conditions at: LEMD (MADRID/BARAJAS , ES) observed 0800 UTC 22 May 2018
Temperature: 16.0°C (61°F)
Dewpoint: 13.0°C (55°F) [RH = 82%]
Pressure (altimeter): 29.97 inches Hg (1015.0 mb)
Winds: from the SSE (150 degrees) at 3 MPH (3 knots; 1.6 m/s)
Visibility: 6 or more miles (10+ km)
Ceiling: at least 12,000 feet AGL
Clouds: few clouds at 4000 feet AGL
Weather: no significant weather observed at this time

METAR text: LEMD 220730Z VRB02KT 9999 FEW040 16/14 Q1015 NOSIG
Conditions at: LEMD (MADRID/BARAJAS , ES) observed 0730 UTC 22 May 2018
Temperature: 16.0°C (61°F)
Dewpoint: 14.0°C (57°F) [RH = 88%]
Pressure (altimeter): 29.97 inches Hg (1015.0 mb)
Winds: variable direction winds at 2 MPH (2 knots; 1.0 m/s)
Visibility: 6 or more miles (10+ km)
Ceiling: at least 12,000 feet AGL
Clouds: few clouds at 4000 feet AGL
Weather: no significant weather observed at this time